PDT,Max TemperatureF,Mean TemperatureF,Min TemperatureF,Max Dew PointF,MeanDew PointF,Min DewpointF,Max Humidity, Mean Humidity, Min Humidity, Max Sea Level PressureIn, Mean Sea Level PressureIn, Min Sea Level PressureIn, Max VisibilityMiles, Mean VisibilityMiles, Min VisibilityMiles, Max Wind SpeedMPH, Mean Wind SpeedMPH, Max Gust SpeedMPH,PrecipitationIn, CloudCover, Events, WindDirDegrees
2013-3-1,59,55,46,52,51,46,100,89,72,30.40,30.36,30.31,10,10,10,16,12,28,0.02,8,Rain,195
2013-3-2,56,46,35,50,45,34,100,88,70,30.31,30.17,30.10,10,9,2,22,8,33,0.09,7,Rain,202
2013-3-3,47,38,29,36,33,29,100,84,50,30.31,30.28,30.25,10,10,10,10,5,,0.00,4,,138
2013-3-4,52,39,26,33,30,25,100,79,45,30.31,30.14,29.93,10,9,2,10,2,,0.00,0,,76
2013-3-5,46,38,29,41,38,28,100,89,74,29.93,29.81,29.71,10,9,1,7,3,,0.03,5,Rain,346
2013-3-6,43,41,39,43,41,39,100,98,87,29.93,29.69,29.58,10,7,0,13,3,,0.43,8,Fog-Rain,182
2013-3-7,51,42,32,42,38,32,100,93,63,30.10,30.03,29.91,10,7,1,8,3,,0.23,5,Rain,157
2013-3-8,52,42,30,41,38,30,100,91,58,30.26,30.13,30.08,10,10,2,8,3,,0.00,6,,50
2013-3-9,56,41,26,42,33,27,100,88,47,30.52,30.42,30.28,10,9,0,7,2,,0.00,1,Fog,346
2013-3-10,44,37,30,44,41,30,100,96,87,30.52,30.46,30.43,10,8,2,4,1,,0.05,8,Rain,153
2013-3-11,50,46,41,47,44,41,100,96,82,30.46,30.36,30.20,10,6,1,7,1,,0.08,8,Rain,103
2013-3-12,55,52,48,51,49,46,100,94,78,30.19,30.14,30.11,10,10,9,18,8,18,0.09,8,Rain,184
2013-3-13,53,50,48,53,50,48,100,98,88,30.22,30.17,30.10,10,10,4,12,5,,0.15,8,Rain,183
2013-3-14,52,50,47,52,49,45,100,96,76,30.18,30.09,30.05,10,10,6,14,1,,0.05,7,Rain,252
2013-3-15,58,53,47,52,50,47,100,93,73,30.24,30.19,30.16,10,9,2,8,2,,0.15,8,Rain,251
2013-3-16,50,44,37,47,42,35,100,89,71,30.17,30.03,29.94,10,10,7,24,10,31,0.13,7,Rain,212
2013-3-17,45,40,36,39,35,32,93,82,61,30.24,30.18,30.01,10,10,6,20,9,26,0.06,6,Rain,224
2013-3-18,52,42,31,41,35,30,100,80,44,30.25,30.21,30.17,10,10,8,18,10,25,0.01,6,Rain,204
2013-3-19,50,40,29,45,37,28,100,86,53,30.23,29.92,29.62,10,9,5,5,0,,0.32,6,Rain,333
2013-3-20,52,44,36,50,43,34,100,89,67,30.08,29.65,29.41,10,10,4,28,11,39,0.51,7,Rain,202
2013-3-21,46,40,32,37,35,31,100,82,61,30.24,30.18,30.10,10,10,10,25,11,30,0.01,5,Rain,213
2013-3-22,48,38,28,34,30,22,100,80,35,30.39,30.30,30.23,10,9,1,6,1,,0.00,3,,221
2013-3-23,50,38,29,32,27,23,100,74,39,30.39,30.34,30.32,10,10,10,1,0,,0.00,0,,340
2013-3-24,53,40,27,33,29,26,98,72,39,30.31,30.23,30.14,10,10,10,2,0,,0.00,4,,95
2013-3-25,59,42,26,38,32,27,100,71,34,30.14,30.05,29.96,10,9,2,8,1,,0.00,4,,4
2013-3-26,61,51,43,41,39,35,90,65,41,30.04,30.00,29.97,10,10,10,7,3,,0.00,7,Rain,214
2013-3-27,58,49,41,46,42,39,99,74,58,30.00,29.97,29.94,10,10,10,9,2,,0.00,5,Rain,61
2013-3-28,59,50,40,52,47,41,100,89,67,30.17,30.08,30.00,10,8,2,15,3,17,0.15,7,Rain-Thunderstorm,249
2013-3-29,65,52,41,50,46,41,100,88,45,30.28,30.22,30.15,10,6,0,8,2,,0.00,5,Fog-Rain,40
2013-3-30,66,50,33,48,39,32,100,93,39,30.27,30.23,30.09,10,3,0,13,2,,0.00,1,Fog,121
2013-3-31,70,52,33,46,39,34,100,83,38,30.08,30.02,29.94,10,6,1,7,2,,0.00,0,,165